Time;durP1;ratioP1;P1;durP2;ratioP2;P2;SDS_P1;SDS_P2;PMS_P1;PMS_P2;Temp;Humidity;BMP_temperature;BMP_pressure;BME280_temperature;BME280_humidity;BME280_pressure;Samples;Min_cycle;Max_cycle;Signal;HPM_P1;HPM_P2
2021/08/24 00:04:12;;;;;;;;;;;13.80;99.90;;;12.69;100.00;96203.09;10499308;28;2108;-79
2021/08/24 00:09:14;;;;;;;;;;;13.70;99.90;;;12.61;100.00;96192.06;10497102;28;2727;-79
2021/08/24 00:14:17;;;;;;;;;;;13.60;99.90;;;12.49;100.00;96191.56;10490551;28;2480;-78
2021/08/24 00:19:20;;;;;;;;;;;13.60;99.90;;;12.41;100.00;96185.66;10499350;28;2729;-79
2021/08/24 00:24:22;;;;;;;;;;;13.50;99.90;;;12.39;100.00;96187.00;10474622;28;2754;-77
2021/08/24 00:29:25;;;;;;;;;;;13.40;99.90;;;12.31;100.00;96185.69;10490993;28;2674;-78
2021/08/24 00:34:28;;;;;;;;;;;13.40;99.90;;;12.44;100.00;96184.31;10494198;28;2132;-79
2021/08/24 00:39:30;;;;;;;;;;;13.40;99.90;;;12.35;100.00;96186.78;10488485;28;2681;-77
2021/08/24 00:44:34;;;;;;;;;;;13.30;99.90;;;12.32;100.00;96197.28;10478436;28;2066;-78
2021/08/24 00:49:37;;;;;;;;;;;13.30;99.90;;;12.11;100.00;96191.94;10493331;28;2770;-78
2021/08/24 06:34:32;;;;;;;;;;;12.70;99.90;;;11.71;100.00;96273.56;10386040;28;3368;-78
2021/08/24 06:39:35;;;;;;;;;;;12.70;99.90;;;11.70;100.00;96281.91;10392204;28;3806;-79
2021/08/24 06:44:38;;;;;;;;;;;12.70;99.90;;;11.59;100.00;96286.47;10405689;28;2527;-81
2021/08/24 06:49:41;;;;;;;;;;;12.70;99.90;;;11.77;100.00;96283.28;10406843;28;2124;-83
2021/08/24 06:54:44;;;;;;;;;;;12.70;99.90;;;11.81;100.00;96289.75;10417020;28;2376;-81
2021/08/24 06:59:47;;;;;;;;;;;12.80;99.90;;;11.84;100.00;96293.81;10411444;28;2437;-81
2021/08/24 07:04:50;;;;;;;;;;;12.80;99.90;;;11.85;100.00;96290.84;10406405;28;2246;-79
2021/08/24 07:09:53;;;;;;;;;;;12.80;99.90;;;12.08;100.00;96288.69;10418746;28;2428;-78
2021/08/24 07:14:57;;;;;;;;;;;12.90;99.90;;;12.09;100.00;96279.53;10435138;28;2352;-78
2021/08/24 07:20:00;;;;;;;;;;;13.00;99.90;;;12.22;100.00;96284.38;10430419;28;2013;-82
2021/08/24 07:25:03;;;;;;;;;;;13.10;99.90;;;12.42;100.00;96295.13;10430930;28;2402;-81
2021/08/24 07:30:06;;;;;;;;;;;13.30;99.90;;;12.42;100.00;96295.13;10435059;28;2275;-82
2021/08/24 07:35:08;;;;;;;;;;;13.40;99.90;;;12.43;100.00;96293.22;10426047;28;3323;-82
2021/08/24 07:40:11;;;;;;;;;;;13.40;99.90;;;12.39;100.00;96298.34;10412852;28;3302;-81
2021/08/24 07:45:14;;;;;;;;;;;13.40;99.90;;;12.42;100.00;96295.13;10420408;28;2562;-79
2021/08/24 07:50:22;;;;;;;;;;;13.40;99.90;;;12.61;100.00;96297.25;10429605;28;2467;-82
2021/08/24 07:55:25;;;;;;;;;;;13.50;99.90;;;12.49;100.00;96304.81;10434901;28;2299;-82
2021/08/24 08:00:27;;;;;;;;;;;13.50;99.90;;;12.30;100.00;96318.06;10420042;28;2400;-79
2021/08/24 08:05:30;;;;;;;;;;;13.40;99.90;;;12.16;100.00;96315.09;10412534;28;2384;-80
2021/08/24 08:10:33;;;;;;;;;;;13.30;99.90;;;12.20;100.00;96334.22;10415732;28;2251;-79
2021/08/24 08:15:36;;;;;;;;;;;13.20;99.90;;;12.35;100.00;96321.56;10419752;28;2429;-79
2021/08/24 08:20:39;;;;;;;;;;;13.30;99.90;;;12.33;100.00;96312.91;10433416;28;2010;-78
2021/08/24 08:25:41;;;;;;;;;;;13.10;99.90;;;12.66;100.00;96316.09;10421740;28;2493;-79
2021/08/24 08:30:44;;;;;;;;;;;13.50;99.90;;;12.85;100.00;96314.44;10405626;28;2289;-80
2021/08/24 08:35:47;;;;;;;;;;;13.60;99.90;;;13.05;100.00;96324.38;10412075;28;2378;-79
2021/08/24 08:40:51;;;;;;;;;;;13.80;99.90;;;12.98;100.00;96313.06;10410265;28;2369;-80
2021/08/24 08:45:58;;;;;;;;;;;13.90;99.90;;;13.25;100.00;96318.91;10414182;28;2325;-81
2021/08/24 08:51:02;;;;;;;;;;;14.20;99.90;;;13.26;100.00;96317.00;10406131;28;2428;-77
2021/08/24 08:56:05;;;;;;;;;;;14.10;99.90;;;13.36;100.00;96322.38;10405676;28;2365;-77
2021/08/24 09:01:08;;;;;;;;;;;14.20;99.90;;;13.30;100.00;96330.78;10421646;28;2340;-78
2021/08/24 09:06:11;;;;;;;;;;;14.20;99.90;;;13.10;100.00;96320.81;10393228;28;2322;-78
2021/08/24 09:11:14;;;;;;;;;;;14.20;99.90;;;13.24;100.00;96320.00;10401543;28;2406;-78
2021/08/24 09:16:17;;;;;;;;;;;14.20;99.90;;;13.60;100.00;96321.69;10406561;28;2270;-79
2021/08/24 09:21:20;;;;;;;;;;;14.30;99.90;;;13.65;100.00;96318.97;10405607;28;2339;-78
2021/08/24 09:26:23;;;;;;;;;;;14.50;99.90;;;13.50;100.00;96319.88;10401411;28;2572;-77
2021/08/24 09:31:26;;;;;;;;;;;14.60;99.90;;;13.52;100.00;96318.50;10410752;28;2420;-77
2021/08/24 09:36:29;;;;;;;;;;;14.60;99.90;;;13.49;100.00;96321.78;10394513;28;2409;-78
2021/08/24 09:41:31;;;;;;;;;;;14.60;99.90;;;13.62;99.90;96316.84;10394533;28;2448;-78
2021/08/24 09:46:54;;;;;;;;;;;14.60;99.90;;;13.83;96.75;96317.50;10397550;28;2338;-79
2021/08/24 09:51:57;;;;;;;;;;;14.80;99.90;;;14.86;92.02;96310.94;10394630;28;2293;-78
2021/08/24 09:56:59;;;;;;;;;;;15.20;99.90;;;14.72;89.41;96312.72;10401396;28;2381;-79
2021/08/24 10:02:02;;;;;;;;;;;15.60;99.90;;;14.53;90.12;96321.56;10404195;28;2339;-79
2021/08/24 10:07:05;;;;;;;;;;;15.60;99.90;;;14.65;90.41;96317.66;10385960;28;2420;-80
2021/08/24 10:12:08;;;;;;;;;;;15.60;99.90;;;14.72;90.27;96326.25;10403339;28;2322;-78
2021/08/24 10:17:11;;;;;;;;;;;15.60;99.90;;;15.02;89.95;96323.22;10416251;28;2227;-81
2021/08/24 10:22:14;;;;;;;;;;;15.80;99.90;;;15.54;87.67;96324.19;10399574;28;2338;-80
2021/08/24 10:27:16;;;;;;;;;;;16.10;99.90;;;15.63;84.99;96318.97;10400856;28;2643;-81
2021/08/24 10:32:19;;;;;;;;;;;16.50;99.90;;;15.97;84.77;96320.63;10386519;28;3380;-81
2021/08/24 10:37:22;;;;;;;;;;;16.60;99.90;;;16.27;80.95;96312.00;10381900;28;2750;-81
2021/08/24 10:42:25;;;;;;;;;;;16.90;99.90;;;17.63;77.33;96304.28;10439467;28;2417;-81
2021/08/24 10:47:28;;;;;;;;;;;17.50;99.90;;;17.53;74.59;96312.66;10442435;28;2350;-79
2021/08/24 10:52:31;;;;;;;;;;;18.20;99.90;;;17.54;75.61;96301.47;10408911;28;2255;-79
2021/08/24 10:57:34;;;;;;;;;;;18.20;99.90;;;17.45;73.93;96307.94;10400388;28;2345;-79
2021/08/24 11:02:36;;;;;;;;;;;18.60;99.90;;;18.77;66.72;96299.41;10405353;28;2314;-79
2021/08/24 11:07:39;;;;;;;;;;;19.10;99.90;;;18.50;68.68;96299.53;10394711;28;2381;-79
2021/08/24 11:12:57;;;;;;;;;;;19.60;99.90;;;19.70;64.06;96306.63;10397818;28;2467;-78
2021/08/24 11:17:59;;;;;;;;;;;19.90;99.90;;;19.30;67.49;96303.13;10402697;28;2325;-78
2021/08/24 11:23:02;;;;;;;;;;;20.00;99.90;;;19.73;62.24;96299.75;10400581;28;2386;-78
2021/08/24 11:28:05;;;;;;;;;;;20.30;99.90;;;19.29;64.20;96302.34;10399582;28;2284;-79
2021/08/24 11:33:08;;;;;;;;;;;20.20;99.90;;;18.85;66.86;96300.56;10395074;28;2338;-78
2021/08/24 11:38:11;;;;;;;;;;;20.00;99.90;;;19.66;65.76;96305.66;10394373;28;2324;-79
2021/08/24 11:43:14;;;;;;;;;;;20.10;99.90;;;19.16;64.97;96308.72;10393688;28;2251;-80
2021/08/24 11:48:16;;;;;;;;;;;20.00;99.90;;;19.06;66.46;96303.53;10396696;28;2319;-79
2021/08/24 11:53:19;;;;;;;;;;;20.00;99.90;;;18.85;66.75;96309.53;10397694;28;2353;-78
2021/08/24 11:58:22;;;;;;;;;;;19.80;99.90;;;17.90;74.12;96305.34;10397097;28;2439;-78
2021/08/24 12:03:25;;;;;;;;;;;19.30;99.90;;;17.95;70.15;96307.97;10399519;28;2330;-76
2021/08/24 12:08:28;;;;;;;;;;;19.00;99.90;;;17.58;71.71;96312.56;10420426;28;2341;-78
2021/08/24 12:13:31;;;;;;;;;;;18.70;99.90;;;17.57;71.94;96316.38;10417910;28;2333;-79
2021/08/24 12:18:34;;;;;;;;;;;18.60;99.90;;;17.83;71.01;96316.66;10420694;28;2309;-79
2021/08/24 12:23:37;;;;;;;;;;;18.80;99.90;;;17.01;73.85;96314.81;10404652;28;2309;-80
2021/08/24 12:28:40;;;;;;;;;;;18.30;99.90;;;16.89;75.19;96323.44;10411537;28;2331;-81
2021/08/24 12:33:43;;;;;;;;;;;17.90;99.90;;;17.59;72.31;96322.31;10425980;28;2318;-82
2021/08/24 12:38:46;;;;;;;;;;;18.10;99.90;;;19.03;66.68;96309.63;10408674;28;2385;-81
2021/08/24 12:43:49;;;;;;;;;;;18.90;99.90;;;19.02;66.01;96308.00;10421230;28;2364;-80
2021/08/24 12:48:52;;;;;;;;;;;19.70;99.90;;;19.05;66.34;96312.81;10408775;28;2322;-79
2021/08/24 12:53:54;;;;;;;;;;;19.90;99.90;;;19.16;67.14;96322.34;10413837;28;2353;-78
2021/08/24 12:58:58;;;;;;;;;;;20.00;99.90;;;18.75;66.96;96315.25;10407095;28;2357;-78
2021/08/24 13:04:01;;;;;;;;;;;19.70;99.90;;;19.14;65.42;96306.28;10405141;28;2302;-81
2021/08/24 13:09:04;;;;;;;;;;;19.70;99.90;;;19.10;64.59;96318.16;10413741;28;2334;-80
2021/08/24 13:14:07;;;;;;;;;;;20.00;99.90;;;18.27;66.88;96312.38;10410006;28;2383;-81
2021/08/24 13:19:10;;;;;;;;;;;19.60;99.90;;;18.33;66.16;96302.97;10413563;28;2376;-78
2021/08/24 13:24:12;;;;;;;;;;;19.40;99.90;;;19.28;63.12;96292.56;10413360;28;2270;-79
2021/08/24 13:29:15;;;;;;;;;;;19.60;99.90;;;19.13;61.38;96287.53;10410638;28;2271;-80
2021/08/24 13:34:18;;;;;;;;;;;19.90;99.90;;;18.79;63.41;96290.94;10402997;28;2284;-80
2021/08/24 13:39:21;;;;;;;;;;;19.90;99.90;;;18.66;64.25;96289.06;10405012;28;2349;-80
2021/08/24 13:44:24;;;;;;;;;;;19.70;99.90;;;18.37;64.88;96293.84;10403738;28;2320;-78
2021/08/24 13:49:27;;;;;;;;;;;19.40;99.90;;;19.20;62.37;96287.88;10407873;28;2286;-80
2021/08/24 13:54:30;;;;;;;;;;;19.60;99.90;;;19.59;61.08;96286.22;10405772;28;2417;-79
2021/08/24 13:59:33;;;;;;;;;;;20.20;99.90;;;19.07;62.83;96284.13;10405641;28;2257;-78
2021/08/24 14:04:36;;;;;;;;;;;20.30;99.90;;;19.51;60.26;96270.63;10394823;28;2324;-79
2021/08/24 14:09:39;;;;;;;;;;;20.40;99.90;;;19.31;61.89;96272.84;10409262;28;2364;-79
2021/08/24 14:14:43;;;;;;;;;;;20.30;99.90;;;18.87;64.32;96269.16;10399949;28;2049;-78
2021/08/24 14:19:45;;;;;;;;;;;20.10;99.90;;;18.63;65.57;96264.06;10389639;28;2407;-78
2021/08/24 14:24:48;;;;;;;;;;;19.80;99.90;;;18.18;68.55;96282.34;10396843;28;2330;-80
2021/08/24 14:29:52;;;;;;;;;;;19.50;99.90;;;18.11;68.59;96279.28;10398725;28;2212;-78
2021/08/24 14:34:55;;;;;;;;;;;19.20;99.90;;;18.16;68.96;96278.34;10399539;28;2025;-79
2021/08/24 14:39:58;;;;;;;;;;;19.20;99.90;;;18.29;68.67;96272.84;10396828;28;2342;-79
2021/08/24 14:45:01;;;;;;;;;;;19.20;99.90;;;17.82;71.68;96282.44;10400138;28;2707;-77
2021/08/24 14:50:04;;;;;;;;;;;19.00;99.90;;;18.08;71.88;96277.19;10395487;28;2257;-78
2021/08/24 14:55:07;;;;;;;;;;;19.00;99.90;;;18.28;72.32;96279.41;10407374;28;2190;-78
2021/08/24 15:00:10;;;;;;;;;;;19.10;99.90;;;18.85;70.31;96271.41;10389491;28;2537;-75
2021/08/24 15:05:13;;;;;;;;;;;19.40;99.90;;;19.14;69.62;96261.88;10387405;28;2369;-77
2021/08/24 15:10:16;;;;;;;;;;;19.60;99.90;;;18.97;67.98;96272.75;10395607;28;2290;-78
2021/08/24 15:15:18;;;;;;;;;;;19.90;99.90;;;18.44;68.40;96277.06;10400148;28;1622;-79
2021/08/24 15:20:22;;;;;;;;;;;19.80;99.90;;;17.51;74.35;96271.41;10408754;28;2337;-79
2021/08/24 15:25:25;;;;;;;;;;;19.00;99.90;;;16.32;87.07;96273.16;10399137;28;2420;-79
2021/08/24 15:30:28;;;;;;;;;;;18.10;99.90;;;15.90;88.78;96272.19;10421520;28;2364;-78
2021/08/24 15:35:31;;;;;;;;;;;17.20;99.90;;;16.07;88.63;96291.47;10400124;28;2315;-79
2021/08/24 15:40:33;;;;;;;;;;;17.00;99.90;;;16.18;86.09;96284.78;10413249;28;2428;-78
2021/08/24 15:45:36;;;;;;;;;;;17.10;99.90;;;16.13;85.29;96293.00;10402635;28;2373;-79
2021/08/24 15:50:39;;;;;;;;;;;17.10;99.90;;;16.21;82.00;96286.88;10404615;28;2278;-78
2021/08/24 15:55:42;;;;;;;;;;;17.10;99.90;;;16.40;80.73;96288.75;10403529;28;2353;-78
2021/08/24 16:00:45;;;;;;;;;;;17.30;99.90;;;16.22;78.12;96287.69;10400048;28;2367;-78
2021/08/24 16:05:48;;;;;;;;;;;17.30;99.90;;;16.08;77.97;96295.78;10410913;28;2668;-78
2021/08/24 16:10:51;;;;;;;;;;;17.10;99.90;;;15.98;76.60;96306.81;10406015;28;2771;-78
2021/08/24 16:15:54;;;;;;;;;;;17.00;99.90;;;15.94;76.63;96305.78;10410571;28;2453;-77
2021/08/24 16:20:57;;;;;;;;;;;16.90;99.90;;;15.84;76.51;96300.50;10408289;28;2305;-77
2021/08/24 16:26:00;;;;;;;;;;;16.90;99.90;;;15.76;76.80;96306.56;10419373;28;2560;-79
2021/08/24 16:31:03;;;;;;;;;;;16.80;99.90;;;15.74;77.21;96311.50;10409554;28;2227;-77
2021/08/24 16:36:06;;;;;;;;;;;16.80;99.90;;;15.77;76.91;96319.84;10404427;28;2747;-78
2021/08/24 16:41:08;;;;;;;;;;;16.70;99.90;;;15.64;77.93;96304.31;10409234;28;2400;-79
2021/08/24 16:46:13;;;;;;;;;;;16.70;99.90;;;15.73;78.03;96302.56;10414439;28;2075;-80
2021/08/24 16:51:16;;;;;;;;;;;16.70;99.90;;;15.75;78.80;96313.09;10429845;28;2634;-79
2021/08/24 16:56:19;;;;;;;;;;;16.70;99.90;;;15.79;78.39;96303.28;10403954;28;2306;-77
2021/08/24 17:01:22;;;;;;;;;;;16.70;99.90;;;15.49;79.60;96309.91;10403611;28;2302;-79
2021/08/24 17:06:26;;;;;;;;;;;16.60;99.90;;;15.41;80.58;96308.66;10403704;28;2370;-79
2021/08/24 17:11:29;;;;;;;;;;;16.50;99.90;;;15.40;80.58;96313.28;10405173;28;2475;-78
2021/08/24 17:16:32;;;;;;;;;;;16.40;99.90;;;15.41;81.58;96306.75;10403447;28;2267;-79
2021/08/24 17:21:35;;;;;;;;;;;16.40;99.90;;;15.35;81.70;96304.41;10407851;28;2299;-78
2021/08/24 17:26:38;;;;;;;;;;;16.40;99.90;;;15.35;82.34;96315.25;10399517;28;2333;-79
2021/08/24 17:31:40;;;;;;;;;;;16.40;99.90;;;15.32;82.40;96307.69;10403321;28;2389;-80
2021/08/24 17:36:44;;;;;;;;;;;16.40;99.90;;;15.35;82.97;96320.66;10426141;28;2301;-79
2021/08/24 17:41:46;;;;;;;;;;;16.30;99.90;;;15.17;83.38;96316.00;10416224;28;2396;-79
2021/08/24 17:46:56;;;;;;;;;;;16.20;99.90;;;15.09;84.67;96328.28;10404080;28;2475;-78
2021/08/24 17:51:59;;;;;;;;;;;16.10;99.90;;;15.08;84.39;96332.91;10405633;28;2231;-79
2021/08/24 17:57:02;;;;;;;;;;;16.10;99.90;;;15.10;85.54;96330.69;10409411;28;2464;-79
2021/08/24 18:02:05;;;;;;;;;;;16.10;99.90;;;15.08;84.81;96337.50;10432045;28;2294;-78
2021/08/24 18:07:08;;;;;;;;;;;16.10;99.90;;;14.97;83.76;96342.22;10423042;28;2330;-78
2021/08/24 18:12:13;;;;;;;;;;;16.10;99.90;;;14.92;84.03;96344.97;10429052;28;2184;-81
2021/08/24 18:17:15;;;;;;;;;;;16.00;99.90;;;14.87;83.87;96345.03;10416678;28;2290;-79
2021/08/24 18:22:18;;;;;;;;;;;15.90;99.90;;;14.82;84.98;96347.78;10423136;28;2326;-79
2021/08/24 18:27:21;;;;;;;;;;;15.90;99.90;;;14.82;84.92;96339.66;10400401;28;2296;-80
2021/08/24 18:32:24;;;;;;;;;;;15.90;99.90;;;14.76;84.78;96348.94;10397170;28;2328;-78
2021/08/24 18:37:27;;;;;;;;;;;15.80;99.90;;;14.76;85.22;96352.47;10405210;28;2297;-79
2021/08/24 18:42:30;;;;;;;;;;;15.80;99.90;;;14.71;85.59;96351.72;10403623;28;2297;-80
2021/08/24 18:47:33;;;;;;;;;;;15.80;99.90;;;14.68;85.49;96350.34;10398972;28;2251;-78
2021/08/24 18:52:36;;;;;;;;;;;15.80;99.90;;;14.64;85.46;96359.34;10395300;28;2428;-78
2021/08/24 18:57:38;;;;;;;;;;;15.80;99.90;;;14.61;86.42;96363.41;10415590;28;2319;-78
2021/08/24 19:02:41;;;;;;;;;;;15.70;99.90;;;14.63;86.31;96369.34;10405847;28;2349;-78
2021/08/24 19:07:45;;;;;;;;;;;15.70;99.90;;;14.54;86.84;96374.56;10405967;28;2343;-79
2021/08/24 19:12:47;;;;;;;;;;;15.70;99.90;;;14.15;96.34;96381.88;10422330;28;2325;-80
2021/08/24 19:17:51;;;;;;;;;;;15.50;99.90;;;13.73;99.23;96377.81;10413123;28;2303;-81
2021/08/24 19:22:54;;;;;;;;;;;15.10;99.90;;;13.52;99.99;96367.13;10426237;28;2285;-78
2021/08/24 19:27:57;;;;;;;;;;;14.80;99.90;;;13.51;100.00;96370.91;10426151;28;2367;-79
2021/08/24 19:33:00;;;;;;;;;;;14.70;99.90;;;13.58;99.67;96372.50;10426206;28;2349;-80
2021/08/24 19:38:03;;;;;;;;;;;14.60;99.90;;;13.59;100.00;96360.59;10435717;28;2305;-80
2021/08/24 19:43:06;;;;;;;;;;;14.60;99.90;;;13.65;100.00;96357.59;10413782;28;2299;-78
2021/08/24 19:48:08;;;;;;;;;;;14.70;99.90;;;13.73;100.00;96365.09;10414050;28;2374;-80
2021/08/24 19:53:11;;;;;;;;;;;14.70;99.90;;;13.81;100.00;96360.22;10434192;28;2353;-80
2021/08/24 19:58:14;;;;;;;;;;;14.80;99.90;;;13.93;99.24;96355.25;10429043;28;2294;-79
2021/08/24 20:03:17;;;;;;;;;;;14.90;99.90;;;13.97;99.18;96345.50;10433745;28;2305;-79
2021/08/24 20:08:26;;;;;;;;;;;15.00;99.90;;;13.99;96.69;96340.63;10395280;28;2316;-80
2021/08/24 20:13:29;;;;;;;;;;;15.00;99.90;;;13.96;95.34;96333.09;10403324;28;2215;-77
2021/08/24 20:18:32;;;;;;;;;;;15.00;99.90;;;13.89;94.84;96338.81;10404150;28;2377;-80
2021/08/24 20:23:37;;;;;;;;;;;15.00;99.90;;;13.84;95.31;96330.72;10408798;28;2374;-80
2021/08/24 20:28:43;;;;;;;;;;;14.90;99.90;;;13.87;95.16;96329.34;10402204;28;2416;-79
2021/08/24 20:33:46;;;;;;;;;;;14.90;99.90;;;13.84;95.38;96325.34;10400730;28;2381;-80
2021/08/24 20:38:49;;;;;;;;;;;14.90;99.90;;;13.78;95.89;96323.75;10398245;28;2372;-80
2021/08/24 20:43:52;;;;;;;;;;;14.80;99.90;;;13.81;96.26;96325.91;10405793;28;2409;-79
2021/08/24 20:48:55;;;;;;;;;;;14.80;99.90;;;13.73;97.27;96323.78;10404547;28;2356;-80
2021/08/24 20:53:58;;;;;;;;;;;14.80;99.90;;;13.76;96.80;96313.22;10405665;28;2344;-80
2021/08/24 20:59:00;;;;;;;;;;;14.80;99.90;;;13.65;97.21;96316.25;10406997;28;2370;-78
2021/08/24 21:04:05;;;;;;;;;;;14.80;99.90;;;13.58;97.58;96313.06;10409068;28;2413;-79
2021/08/24 21:09:07;;;;;;;;;;;14.70;99.90;;;13.59;98.10;96311.97;10403680;28;2219;-78
2021/08/24 21:14:10;;;;;;;;;;;14.60;99.90;;;13.61;98.38;96309.81;10404464;28;2433;-78
2021/08/24 21:19:14;;;;;;;;;;;14.60;99.90;;;13.65;97.36;96310.88;10410647;28;2375;-78
2021/08/24 21:24:17;;;;;;;;;;;14.60;99.90;;;13.59;97.79;96309.28;10412723;28;2328;-77
2021/08/24 21:29:20;;;;;;;;;;;14.60;99.90;;;13.66;97.73;96304.38;10410543;28;2339;-76
2021/08/24 21:34:23;;;;;;;;;;;14.70;99.90;;;13.68;98.09;96305.72;10403220;28;2298;-77
2021/08/24 21:39:26;;;;;;;;;;;14.70;99.90;;;13.71;98.25;96312.44;10417548;28;2399;-78
2021/08/24 21:44:28;;;;;;;;;;;14.70;99.90;;;13.76;97.62;96309.72;10395676;28;2294;-77
2021/08/24 21:49:31;;;;;;;;;;;14.70;99.90;;;13.76;98.36;96307.03;10405771;28;2354;-78
2021/08/24 21:54:34;;;;;;;;;;;14.80;99.90;;;13.72;97.82;96304.06;10392696;28;2176;-79
2021/08/24 21:59:37;;;;;;;;;;;14.80;99.90;;;13.83;98.22;96315.63;10399034;28;2318;-79
2021/08/24 22:04:40;;;;;;;;;;;14.80;99.90;;;13.55;100.00;96311.75;10391018;28;2384;-79
2021/08/24 22:09:42;;;;;;;;;;;14.70;99.90;;;13.33;99.60;96301.31;10401515;28;2333;-79
2021/08/24 22:14:45;;;;;;;;;;;14.50;99.90;;;13.31;99.91;96300.81;10402329;28;2272;-78
2021/08/24 22:19:48;;;;;;;;;;;14.40;99.90;;;13.25;99.94;96301.91;10396183;28;2413;-79
2021/08/24 22:24:51;;;;;;;;;;;14.30;99.90;;;13.25;100.00;96291.91;10396686;28;2397;-78
2021/08/24 22:29:54;;;;;;;;;;;14.30;99.90;;;13.30;100.00;96295.69;10393510;28;2187;-78
2021/08/24 22:34:56;;;;;;;;;;;14.30;99.90;;;13.29;99.86;96300.25;10393805;28;2361;-77
2021/08/24 22:39:59;;;;;;;;;;;14.30;99.90;;;13.25;99.54;96296.50;10394354;28;2372;-79
2021/08/24 22:45:02;;;;;;;;;;;14.30;99.90;;;13.24;99.58;96293.00;10393462;28;2210;-77
2021/08/24 22:50:05;;;;;;;;;;;14.30;99.90;;;13.15;100.00;96288.41;10389787;28;2294;-78
2021/08/24 22:55:08;;;;;;;;;;;14.20;99.90;;;13.11;100.00;96284.69;10394556;28;2426;-79
2021/08/24 23:00:11;;;;;;;;;;;14.20;99.90;;;13.07;100.00;96280.91;10391766;28;2318;-76
2021/08/24 23:05:14;;;;;;;;;;;14.20;99.90;;;13.03;100.00;96286.03;10390590;28;2657;-78
2021/08/24 23:10:17;;;;;;;;;;;14.10;99.90;;;12.98;100.00;96281.47;10403833;28;2428;-76
2021/08/24 23:15:19;;;;;;;;;;;14.10;99.90;;;12.94;100.00;96280.41;10401711;28;2305;-79
2021/08/24 23:20:22;;;;;;;;;;;14.00;99.90;;;12.99;100.00;96280.41;10397525;28;2297;-80
2021/08/24 23:25:25;;;;;;;;;;;14.00;99.90;;;13.08;100.00;96285.22;10398098;28;2311;-78
2021/08/24 23:30:28;;;;;;;;;;;14.10;99.90;;;13.10;100.00;96277.63;10399224;28;2303;-79
2021/08/24 23:35:31;;;;;;;;;;;14.10;99.90;;;13.14;99.08;96270.59;10396383;28;2311;-77
2021/08/24 23:40:34;;;;;;;;;;;14.10;99.90;;;13.14;97.13;96276.00;10400629;28;2337;-77
2021/08/24 23:45:36;;;;;;;;;;;14.20;99.90;;;13.11;95.74;96271.19;10403558;28;2354;-78
2021/08/24 23:50:39;;;;;;;;;;;14.10;99.90;;;13.11;95.25;96263.09;10400241;28;2321;-79
2021/08/24 23:55:42;;;;;;;;;;;14.10;99.90;;;13.11;94.14;96263.09;10404829;28;2285;-79
